Etusivu
METAR-TAF:

METAR-TAF

Lentoasemat :

Tokat, Turkki

Leveyspiiri: 40-18N, Pituuspiiri: 036-34E, korkeus merenpinnasta: 608 m

Tämänhetkinen sää

Tämä raportti tehtiin 13 tuntia ja 18 minuuttia sitten, kello 12.50 UTC
Tuuli 6 kn luoteesta, vaihdellen lännen ja pohjoisen välillä
Lämpötila 26°C
Kosteus 42%
Ilmanpaine 1018 hPa
Näkyvyys 10 km tai enemmän
Muutamia pilviä 3500 ft:n korkeudessa

METAR: LTAW 051250Z 31006KT 270V360 9999 FEW035 26/12 Q1018

Aika: 05:08 (02:08 UTC)

Sääennuste

Tämä raportti tehtiin 12 tuntia ja 28 minuuttia sitten, kello 13.40 UTC
Ennuste voimassa 05. päivästä klo 15 UTC - 05. päivään klo 24 UTC
Tuuli 6 kn lännestä
Näkyvyys 10 km tai enemmän
Muutamia pilviä 4000 ft:n korkeudessa
Tulossa
05. päivästä klo 16 UTC - 05. päivään klo 19 UTC
Näkyvyys 10 km tai enemmän
ei pilviä alle 1500 m:ssä eikä cumulonimbus-pilviä

TAF: LTAW 051340Z 0515/0524 28006KT 9999 FEW040 BECMG 0516/0519 CAVOK

Säähavainnot ja -ennusteet yli 4000 lentoasemalta (METAR- ja TAF-raportit).

Käytössä olevat sääasemat on merkitty karttaan keltaisilla ja punaisilla pisteillä.

Aseta hiiri pisteen päälle nähdäksesi sääaseman nimen.

Klikkaa sitten nähdäksesi säähavainnot ja -ennusteet.

Kartan vaihtaminen: klikkaa mustalla rastilla varustettuja vihreitä pisteitä, niin voit zoomata sisään; viivalla varustettua vihreää pistettä, niin voit zoomata ulos tai vihreitä nuolia, niin pääset viereisille kartoille.


METAR-TAF: